sensor_id;sensor_type;location;lat;lon;timestamp;temperature;humidity
2453;DHT22;63678;47.994;7.854;2023-02-22T00:02:11;6.70;99.90
2453;DHT22;63678;47.994;7.854;2023-02-22T00:05:18;6.70;99.90
2453;DHT22;63678;47.994;7.854;2023-02-22T00:07:55;6.70;99.90
2453;DHT22;63678;47.994;7.854;2023-02-22T00:10:28;6.90;99.90
2453;DHT22;63678;47.994;7.854;2023-02-22T00:13:00;6.80;99.90
2453;DHT22;63678;47.994;7.854;2023-02-22T00:15:33;6.90;99.90
2453;DHT22;63678;47.994;7.854;2023-02-22T00:18:06;6.70;99.90
2453;DHT22;63678;47.994;7.854;2023-02-22T00:23:21;6.70;99.90
2453;DHT22;63678;47.994;7.854;2023-02-22T00:25:57;6.70;99.90
2453;DHT22;63678;47.994;7.854;2023-02-22T00:28:30;6.60;99.90
2453;DHT22;63678;47.994;7.854;2023-02-22T00:31:04;6.50;99.90
2453;DHT22;63678;47.994;7.854;2023-02-22T00:33:38;6.50;99.90
2453;DHT22;63678;47.994;7.854;2023-02-22T00:36:11;6.40;99.90
2453;DHT22;63678;47.994;7.854;2023-02-22T00:38:44;6.40;99.90
2453;DHT22;63678;47.994;7.854;2023-02-22T00:41:16;6.30;99.90
2453;DHT22;63678;47.994;7.854;2023-02-22T00:43:49;6.20;99.90
2453;DHT22;63678;47.994;7.854;2023-02-22T00:46:23;6.10;99.90
2453;DHT22;63678;47.994;7.854;2023-02-22T00:48:57;6.00;99.90
2453;DHT22;63678;47.994;7.854;2023-02-22T00:51:29;6.00;99.90
2453;DHT22;63678;47.994;7.854;2023-02-22T00:54:02;6.00;99.90
2453;DHT22;63678;47.994;7.854;2023-02-22T00:56:36;6.00;99.90
2453;DHT22;63678;47.994;7.854;2023-02-22T00:59:08;6.00;99.90
2453;DHT22;63678;47.994;7.854;2023-02-22T01:01:40;6.10;99.90
2453;DHT22;63678;47.994;7.854;2023-02-22T01:04:13;6.10;99.90
2453;DHT22;63678;47.994;7.854;2023-02-22T01:06:45;6.00;99.90
2453;DHT22;63678;47.994;7.854;2023-02-22T01:09:19;6.00;99.90
2453;DHT22;63678;47.994;7.854;2023-02-22T01:11:53;6.10;99.90
2453;DHT22;63678;47.994;7.854;2023-02-22T01:14:28;6.10;99.90
2453;DHT22;63678;47.994;7.854;2023-02-22T01:17:01;6.10;99.90
2453;DHT22;63678;47.994;7.854;2023-02-22T01:19:36;6.20;99.90
2453;DHT22;63678;47.994;7.854;2023-02-22T01:22:08;6.00;99.90
2453;DHT22;63678;47.994;7.854;2023-02-22T01:27:14;5.90;99.90
2453;DHT22;63678;47.994;7.854;2023-02-22T01:29:48;6.10;99.90
2453;DHT22;63678;47.994;7.854;2023-02-22T01:32:21;6.00;99.90
2453;DHT22;63678;47.994;7.854;2023-02-22T01:37:26;6.10;99.90
2453;DHT22;63678;47.994;7.854;2023-02-22T01:39:58;6.20;99.90
2453;DHT22;63678;47.994;7.854;2023-02-22T01:42:31;6.10;99.90
2453;DHT22;63678;47.994;7.854;2023-02-22T01:48:27;6.10;99.90
2453;DHT22;63678;47.994;7.854;2023-02-22T01:51:13;6.10;99.90
2453;DHT22;63678;47.994;7.854;2023-02-22T01:54:04;6.00;99.90
2453;DHT22;63678;47.994;7.854;2023-02-22T02:00:06;6.10;99.90
2453;DHT22;63678;47.994;7.854;2023-02-22T02:02:48;6.10;99.90
2453;DHT22;63678;47.994;7.854;2023-02-22T02:05:43;5.90;99.90
2453;DHT22;63678;47.994;7.854;2023-02-22T02:08:28;6.10;99.90
2453;DHT22;63678;47.994;7.854;2023-02-22T02:11:08;6.10;99.90
2453;DHT22;63678;47.994;7.854;2023-02-22T02:13:41;6.10;99.90
2453;DHT22;63678;47.994;7.854;2023-02-22T02:16:13;6.10;99.90
2453;DHT22;63678;47.994;7.854;2023-02-22T02:31:57;6.00;99.90
2453;DHT22;63678;47.994;7.854;2023-02-22T02:34:59;5.80;99.90
2453;DHT22;63678;47.994;7.854;2023-02-22T02:37:54;5.60;99.90
2453;DHT22;63678;47.994;7.854;2023-02-22T02:41:01;5.60;99.90
2453;DHT22;63678;47.994;7.854;2023-02-22T02:43:58;5.80;99.90
2453;DHT22;63678;47.994;7.854;2023-02-22T02:46:49;5.50;99.90
2453;DHT22;63678;47.994;7.854;2023-02-22T02:49:29;5.50;99.90
2453;DHT22;63678;47.994;7.854;2023-02-22T02:52:05;5.20;99.90
2453;DHT22;63678;47.994;7.854;2023-02-22T02:59:46;5.00;99.90
2453;DHT22;63678;47.994;7.854;2023-02-22T03:02:43;4.90;99.90
2453;DHT22;63678;47.994;7.854;2023-02-22T03:08:51;4.80;99.90
2453;DHT22;63678;47.994;7.854;2023-02-22T03:11:33;4.70;99.90
2453;DHT22;63678;47.994;7.854;2023-02-22T03:14:26;4.60;99.90
2453;DHT22;63678;47.994;7.854;2023-02-22T03:17:21;4.50;99.90
2453;DHT22;63678;47.994;7.854;2023-02-22T03:20:21;5.10;99.90
2453;DHT22;63678;47.994;7.854;2023-02-22T03:23:31;5.20;99.90
2453;DHT22;63678;47.994;7.854;2023-02-22T03:26:20;5.20;99.90
2453;DHT22;63678;47.994;7.854;2023-02-22T03:29:00;5.20;99.90
2453;DHT22;63678;47.994;7.854;2023-02-22T03:31:44;5.20;99.90
2453;DHT22;63678;47.994;7.854;2023-02-22T03:34:31;5.60;99.90
2453;DHT22;63678;47.994;7.854;2023-02-22T03:37:28;5.70;99.90
2453;DHT22;63678;47.994;7.854;2023-02-22T03:40:07;5.70;99.90
2453;DHT22;63678;47.994;7.854;2023-02-22T03:42:53;5.80;99.90
2453;DHT22;63678;47.994;7.854;2023-02-22T03:45:30;5.80;99.90
2453;DHT22;63678;47.994;7.854;2023-02-22T03:48:13;5.80;99.90
2453;DHT22;63678;47.994;7.854;2023-02-22T03:50:52;5.80;99.90
2453;DHT22;63678;47.994;7.854;2023-02-22T03:55:59;5.70;99.90
2453;DHT22;63678;47.994;7.854;2023-02-22T03:58:34;5.70;99.90
2453;DHT22;63678;47.994;7.854;2023-02-22T04:01:07;5.70;99.90
2453;DHT22;63678;47.994;7.854;2023-02-22T04:03:40;5.50;99.90
2453;DHT22;63678;47.994;7.854;2023-02-22T04:08:46;5.40;99.90
2453;DHT22;63678;47.994;7.854;2023-02-22T04:11:18;5.10;99.90
2453;DHT22;63678;47.994;7.854;2023-02-22T04:13:51;5.20;99.90
2453;DHT22;63678;47.994;7.854;2023-02-22T04:16:25;5.20;99.90
2453;DHT22;63678;47.994;7.854;2023-02-22T04:18:58;5.30;99.90
2453;DHT22;63678;47.994;7.854;2023-02-22T04:21:31;5.40;99.90
2453;DHT22;63678;47.994;7.854;2023-02-22T04:24:04;5.50;99.90
2453;DHT22;63678;47.994;7.854;2023-02-22T04:26:37;5.50;99.90
2453;DHT22;63678;47.994;7.854;2023-02-22T04:29:10;5.40;99.90
2453;DHT22;63678;47.994;7.854;2023-02-22T04:31:45;5.40;99.90
2453;DHT22;63678;47.994;7.854;2023-02-22T04:36:52;5.20;99.90
2453;DHT22;63678;47.994;7.854;2023-02-22T04:39:25;5.20;99.90
2453;DHT22;63678;47.994;7.854;2023-02-22T04:41:58;5.30;99.90
2453;DHT22;63678;47.994;7.854;2023-02-22T04:44:31;5.40;99.90
2453;DHT22;63678;47.994;7.854;2023-02-22T04:47:03;5.60;99.90
2453;DHT22;63678;47.994;7.854;2023-02-22T04:49:37;5.60;99.90
2453;DHT22;63678;47.994;7.854;2023-02-22T04:52:11;5.50;99.90
2453;DHT22;63678;47.994;7.854;2023-02-22T04:54:43;5.50;99.90
2453;DHT22;63678;47.994;7.854;2023-02-22T04:57:15;5.50;99.90
2453;DHT22;63678;47.994;7.854;2023-02-22T04:59:48;5.60;99.90
2453;DHT22;63678;47.994;7.854;2023-02-22T05:02:22;5.50;99.90
2453;DHT22;63678;47.994;7.854;2023-02-22T05:04:54;5.50;99.90
2453;DHT22;63678;47.994;7.854;2023-02-22T05:07:26;5.50;99.90
2453;DHT22;63678;47.994;7.854;2023-02-22T05:09:58;5.50;99.90
2453;DHT22;63678;47.994;7.854;2023-02-22T05:12:34;5.40;99.90
2453;DHT22;63678;47.994;7.854;2023-02-22T05:15:07;5.40;99.90
2453;DHT22;63678;47.994;7.854;2023-02-22T05:17:40;5.40;99.90
2453;DHT22;63678;47.994;7.854;2023-02-22T05:20:33;5.50;99.90
2453;DHT22;63678;47.994;7.854;2023-02-22T05:23:06;5.50;99.90
2453;DHT22;63678;47.994;7.854;2023-02-22T05:25:38;5.30;99.90
2453;DHT22;63678;47.994;7.854;2023-02-22T05:28:13;5.40;99.90
2453;DHT22;63678;47.994;7.854;2023-02-22T05:33:18;5.30;99.90
2453;DHT22;63678;47.994;7.854;2023-02-22T05:35:51;5.30;99.90
2453;DHT22;63678;47.994;7.854;2023-02-22T05:38:23;5.50;99.90
2453;DHT22;63678;47.994;7.854;2023-02-22T05:43:28;5.80;99.90
2453;DHT22;63678;47.994;7.854;2023-02-22T05:46:01;5.80;99.90
2453;DHT22;63678;47.994;7.854;2023-02-22T05:48:33;5.80;99.90
2453;DHT22;63678;47.994;7.854;2023-02-22T05:51:06;5.80;99.90
2453;DHT22;63678;47.994;7.854;2023-02-22T05:53:40;5.80;99.90
2453;DHT22;63678;47.994;7.854;2023-02-22T05:56:24;5.70;99.90
2453;DHT22;63678;47.994;7.854;2023-02-22T05:58:58;5.70;99.90
2453;DHT22;63678;47.994;7.854;2023-02-22T06:01:30;5.70;99.90
2453;DHT22;63678;47.994;7.854;2023-02-22T06:06:35;5.80;99.90
2453;DHT22;63678;47.994;7.854;2023-02-22T06:09:07;5.80;99.90
2453;DHT22;63678;47.994;7.854;2023-02-22T06:11:39;5.70;99.90
2453;DHT22;63678;47.994;7.854;2023-02-22T06:14:11;5.80;99.90
2453;DHT22;63678;47.994;7.854;2023-02-22T06:16:43;5.70;99.90
2453;DHT22;63678;47.994;7.854;2023-02-22T06:21:53;5.90;99.90
2453;DHT22;63678;47.994;7.854;2023-02-22T06:27:00;5.80;99.90
2453;DHT22;63678;47.994;7.854;2023-02-22T06:29:33;5.70;99.90
2453;DHT22;63678;47.994;7.854;2023-02-22T06:34:38;5.70;99.90
2453;DHT22;63678;47.994;7.854;2023-02-22T06:37:11;5.80;99.90
2453;DHT22;63678;47.994;7.854;2023-02-22T06:39:44;5.90;99.90
2453;DHT22;63678;47.994;7.854;2023-02-22T06:44:48;5.90;99.90
2453;DHT22;63678;47.994;7.854;2023-02-22T06:49:56;6.00;99.90
2453;DHT22;63678;47.994;7.854;2023-02-22T06:52:29;6.10;99.90
2453;DHT22;63678;47.994;7.854;2023-02-22T06:55:02;6.00;99.90
2453;DHT22;63678;47.994;7.854;2023-02-22T06:57:34;6.00;99.90
2453;DHT22;63678;47.994;7.854;2023-02-22T07:00:06;5.90;99.90
2453;DHT22;63678;47.994;7.854;2023-02-22T07:05:14;6.00;99.90
2453;DHT22;63678;47.994;7.854;2023-02-22T07:07:49;6.10;99.90
2453;DHT22;63678;47.994;7.854;2023-02-22T07:10:26;6.10;99.90
2453;DHT22;63678;47.994;7.854;2023-02-22T07:13:00;6.10;99.90
2453;DHT22;63678;47.994;7.854;2023-02-22T07:15:33;6.20;99.90
2453;DHT22;63678;47.994;7.854;2023-02-22T07:18:06;6.30;99.90
2453;DHT22;63678;47.994;7.854;2023-02-22T07:20:39;6.30;99.90
2453;DHT22;63678;47.994;7.854;2023-02-22T07:23:15;6.40;99.90
2453;DHT22;63678;47.994;7.854;2023-02-22T07:25:47;6.50;99.90
2453;DHT22;63678;47.994;7.854;2023-02-22T07:28:20;6.60;99.90
2453;DHT22;63678;47.994;7.854;2023-02-22T07:30:52;6.80;99.90
2453;DHT22;63678;47.994;7.854;2023-02-22T07:33:24;6.90;99.90
2453;DHT22;63678;47.994;7.854;2023-02-22T07:38:30;6.80;99.90
2453;DHT22;63678;47.994;7.854;2023-02-22T07:43:35;6.80;99.90
2453;DHT22;63678;47.994;7.854;2023-02-22T07:46:08;6.90;99.90
2453;DHT22;63678;47.994;7.854;2023-02-22T07:48:40;7.00;99.90
2453;DHT22;63678;47.994;7.854;2023-02-22T07:51:15;7.20;99.90
2453;DHT22;63678;47.994;7.854;2023-02-22T07:56:21;7.40;99.90
2453;DHT22;63678;47.994;7.854;2023-02-22T07:58:54;7.50;99.90
2453;DHT22;63678;47.994;7.854;2023-02-22T08:01:26;7.70;99.90
2453;DHT22;63678;47.994;7.854;2023-02-22T08:03:58;7.60;99.90
2453;DHT22;63678;47.994;7.854;2023-02-22T08:09:03;7.80;99.90
2453;DHT22;63678;47.994;7.854;2023-02-22T08:11:35;7.90;99.90
2453;DHT22;63678;47.994;7.854;2023-02-22T08:14:08;7.90;99.90
2453;DHT22;63678;47.994;7.854;2023-02-22T08:16:40;8.10;99.90
2453;DHT22;63678;47.994;7.854;2023-02-22T08:19:12;8.20;99.90
2453;DHT22;63678;47.994;7.854;2023-02-22T08:21:44;8.40;99.90
2453;DHT22;63678;47.994;7.854;2023-02-22T08:24:17;8.40;99.90
2453;DHT22;63678;47.994;7.854;2023-02-22T08:26:49;8.30;99.90
2453;DHT22;63678;47.994;7.854;2023-02-22T08:42:05;8.70;99.90
2453;DHT22;63678;47.994;7.854;2023-02-22T08:44:39;9.30;99.90
2453;DHT22;63678;47.994;7.854;2023-02-22T08:47:12;9.80;99.90
2453;DHT22;63678;47.994;7.854;2023-02-22T08:52:18;10.20;99.90
2453;DHT22;63678;47.994;7.854;2023-02-22T08:54:53;10.50;99.90
2453;DHT22;63678;47.994;7.854;2023-02-22T08:57:26;11.00;99.90
2453;DHT22;63678;47.994;7.854;2023-02-22T08:59:58;10.90;99.90
2453;DHT22;63678;47.994;7.854;2023-02-22T09:05:03;11.70;99.90
2453;DHT22;63678;47.994;7.854;2023-02-22T09:07:39;11.80;99.90
2453;DHT22;63678;47.994;7.854;2023-02-22T09:10:15;12.00;99.90
2453;DHT22;63678;47.994;7.854;2023-02-22T09:12:53;11.70;99.90
2453;DHT22;63678;47.994;7.854;2023-02-22T09:15:29;12.20;99.90
2453;DHT22;63678;47.994;7.854;2023-02-22T09:18:03;11.90;99.90
2453;DHT22;63678;47.994;7.854;2023-02-22T09:20:39;12.30;99.90
2453;DHT22;63678;47.994;7.854;2023-02-22T09:23:12;12.30;99.90
2453;DHT22;63678;47.994;7.854;2023-02-22T09:28:18;13.20;99.90
2453;DHT22;63678;47.994;7.854;2023-02-22T09:30:50;13.60;99.90
2453;DHT22;63678;47.994;7.854;2023-02-22T09:33:23;13.90;99.90
2453;DHT22;63678;47.994;7.854;2023-02-22T09:35:56;14.40;99.90
2453;DHT22;63678;47.994;7.854;2023-02-22T09:38:31;14.60;99.90
2453;DHT22;63678;47.994;7.854;2023-02-22T09:41:09;14.60;99.90
2453;DHT22;63678;47.994;7.854;2023-02-22T09:46:38;14.80;99.90
2453;DHT22;63678;47.994;7.854;2023-02-22T09:49:20;15.20;99.90
2453;DHT22;63678;47.994;7.854;2023-02-22T09:52:23;15.10;99.90
2453;DHT22;63678;47.994;7.854;2023-02-22T09:58:27;16.10;99.90
2453;DHT22;63678;47.994;7.854;2023-02-22T10:01:29;16.30;99.90
2453;DHT22;63678;47.994;7.854;2023-02-22T10:04:10;16.00;99.90
2453;DHT22;63678;47.994;7.854;2023-02-22T10:10:16;16.20;99.90
2453;DHT22;63678;47.994;7.854;2023-02-22T10:15:59;16.10;99.90
2453;DHT22;63678;47.994;7.854;2023-02-22T10:18:53;16.50;99.90
2453;DHT22;63678;47.994;7.854;2023-02-22T10:22:16;16.40;99.90
2453;DHT22;63678;47.994;7.854;2023-02-22T10:25:03;16.40;99.90
2453;DHT22;63678;47.994;7.854;2023-02-22T10:30:53;15.60;99.90
2453;DHT22;63678;47.994;7.854;2023-02-22T10:33:38;15.40;99.90
2453;DHT22;63678;47.994;7.854;2023-02-22T10:36:19;15.00;99.90
2453;DHT22;63678;47.994;7.854;2023-02-22T10:39:24;14.80;99.90
2453;DHT22;63678;47.994;7.854;2023-02-22T10:42:06;15.20;99.90
2453;DHT22;63678;47.994;7.854;2023-02-22T10:44:40;15.10;99.90
2453;DHT22;63678;47.994;7.854;2023-02-22T10:47:13;14.80;99.90
2453;DHT22;63678;47.994;7.854;2023-02-22T10:49:53;14.30;99.90
2453;DHT22;63678;47.994;7.854;2023-02-22T10:52:31;15.70;99.90
2453;DHT22;63678;47.994;7.854;2023-02-22T10:55:04;14.40;99.90
2453;DHT22;63678;47.994;7.854;2023-02-22T10:57:49;14.50;99.90
2453;DHT22;63678;47.994;7.854;2023-02-22T11:00:29;14.90;99.90
2453;DHT22;63678;47.994;7.854;2023-02-22T11:03:19;15.30;99.90
2453;DHT22;63678;47.994;7.854;2023-02-22T11:05:53;15.00;99.90
2453;DHT22;63678;47.994;7.854;2023-02-22T11:08:30;15.20;99.90
2453;DHT22;63678;47.994;7.854;2023-02-22T11:11:21;15.40;99.90
2453;DHT22;63678;47.994;7.854;2023-02-22T11:13:56;15.70;99.90
2453;DHT22;63678;47.994;7.854;2023-02-22T11:16:36;15.60;99.90
2453;DHT22;63678;47.994;7.854;2023-02-22T11:21:43;15.30;99.90
2453;DHT22;63678;47.994;7.854;2023-02-22T11:24:16;14.90;99.90
2453;DHT22;63678;47.994;7.854;2023-02-22T11:27:01;14.60;99.90
2453;DHT22;63678;47.994;7.854;2023-02-22T11:29:38;15.10;99.90
2453;DHT22;63678;47.994;7.854;2023-02-22T11:32:17;15.30;99.90
2453;DHT22;63678;47.994;7.854;2023-02-22T11:34:54;15.30;99.90
2453;DHT22;63678;47.994;7.854;2023-02-22T11:38:23;15.80;99.90
2453;DHT22;63678;47.994;7.854;2023-02-22T11:41:13;15.90;99.90
2453;DHT22;63678;47.994;7.854;2023-02-22T11:43:49;15.60;99.90
2453;DHT22;63678;47.994;7.854;2023-02-22T11:46:26;15.80;99.90
2453;DHT22;63678;47.994;7.854;2023-02-22T11:49:08;16.10;99.90
2453;DHT22;63678;47.994;7.854;2023-02-22T11:55:06;15.90;99.90
2453;DHT22;63678;47.994;7.854;2023-02-22T11:58:34;15.70;99.90
2453;DHT22;63678;47.994;7.854;2023-02-22T12:01:28;15.60;99.90
2453;DHT22;63678;47.994;7.854;2023-02-22T12:04:46;15.60;99.90
2453;DHT22;63678;47.994;7.854;2023-02-22T12:07:49;15.10;99.90
2453;DHT22;63678;47.994;7.854;2023-02-22T12:13:41;15.20;99.90
2453;DHT22;63678;47.994;7.854;2023-02-22T12:19:32;15.00;99.90
2453;DHT22;63678;47.994;7.854;2023-02-22T12:22:12;14.80;99.90
2453;DHT22;63678;47.994;7.854;2023-02-22T12:25:02;14.90;99.90
2453;DHT22;63678;47.994;7.854;2023-02-22T12:27:44;14.90;99.90
2453;DHT22;63678;47.994;7.854;2023-02-22T12:30:33;14.90;99.90
2453;DHT22;63678;47.994;7.854;2023-02-22T12:33:13;14.60;99.90
2453;DHT22;63678;47.994;7.854;2023-02-22T12:35:53;13.70;99.90
2453;DHT22;63678;47.994;7.854;2023-02-22T12:38:36;13.70;99.90
2453;DHT22;63678;47.994;7.854;2023-02-22T12:41:30;13.80;99.90
2453;DHT22;63678;47.994;7.854;2023-02-22T12:44:15;14.00;99.90
2453;DHT22;63678;47.994;7.854;2023-02-22T12:46:51;14.10;99.90
2453;DHT22;63678;47.994;7.854;2023-02-22T12:49:47;14.20;99.90
2453;DHT22;63678;47.994;7.854;2023-02-22T12:55:46;14.20;99.90
2453;DHT22;63678;47.994;7.854;2023-02-22T12:58:52;14.00;99.90
2453;DHT22;63678;47.994;7.854;2023-02-22T13:01:43;13.90;99.90
2453;DHT22;63678;47.994;7.854;2023-02-22T13:13:40;14.30;99.90
2453;DHT22;63678;47.994;7.854;2023-02-22T13:16:38;14.20;99.90
2453;DHT22;63678;47.994;7.854;2023-02-22T13:22:23;14.00;99.90
2453;DHT22;63678;47.994;7.854;2023-02-22T13:25:09;14.10;99.90
2453;DHT22;63678;47.994;7.854;2023-02-22T13:27:50;14.10;99.90
2453;DHT22;63678;47.994;7.854;2023-02-22T13:30:37;14.10;99.90
2453;DHT22;63678;47.994;7.854;2023-02-22T13:36:35;14.10;99.90
2453;DHT22;63678;47.994;7.854;2023-02-22T13:45:08;14.60;99.90
2453;DHT22;63678;47.994;7.854;2023-02-22T13:48:10;14.60;99.90
2453;DHT22;63678;47.994;7.854;2023-02-22T13:56:28;14.80;99.90
2453;DHT22;63678;47.994;7.854;2023-02-22T13:59:02;14.70;99.90
2453;DHT22;63678;47.994;7.854;2023-02-22T14:01:40;14.50;99.90
2453;DHT22;63678;47.994;7.854;2023-02-22T14:09:54;14.20;99.90
2453;DHT22;63678;47.994;7.854;2023-02-22T14:18:04;14.30;99.90
2453;DHT22;63678;47.994;7.854;2023-02-22T14:20:38;14.40;99.90
2453;DHT22;63678;47.994;7.854;2023-02-22T14:23:27;14.20;99.90
2453;DHT22;63678;47.994;7.854;2023-02-22T14:26:27;14.30;99.90
2453;DHT22;63678;47.994;7.854;2023-02-22T14:29:14;14.30;99.90
2453;DHT22;63678;47.994;7.854;2023-02-22T14:43:18;11.70;99.90
2453;DHT22;63678;47.994;7.854;2023-02-22T14:45:54;14.20;99.90
2453;DHT22;63678;47.994;7.854;2023-02-22T14:48:32;14.20;99.90
2453;DHT22;63678;47.994;7.854;2023-02-22T14:51:23;14.20;99.90
2453;DHT22;63678;47.994;7.854;2023-02-22T14:54:19;14.20;99.90
2453;DHT22;63678;47.994;7.854;2023-02-22T14:57:11;14.20;99.90
2453;DHT22;63678;47.994;7.854;2023-02-22T15:00:36;14.10;99.90
2453;DHT22;63678;47.994;7.854;2023-02-22T15:05:36;14.20;99.90
2453;DHT22;63678;47.994;7.854;2023-02-22T15:08:14;14.20;99.90
2453;DHT22;63678;47.994;7.854;2023-02-22T15:10:50;14.00;99.90
2453;DHT22;63678;47.994;7.854;2023-02-22T15:13:25;13.80;99.90
2453;DHT22;63678;47.994;7.854;2023-02-22T15:16:00;13.80;99.90
2453;DHT22;63678;47.994;7.854;2023-02-22T15:18:39;13.70;99.90
2453;DHT22;63678;47.994;7.854;2023-02-22T15:21:15;13.50;99.90
2453;DHT22;63678;47.994;7.854;2023-02-22T15:23:57;13.50;99.90
2453;DHT22;63678;47.994;7.854;2023-02-22T15:26:41;13.60;99.90
2453;DHT22;63678;47.994;7.854;2023-02-22T15:29:35;13.60;99.90
2453;DHT22;63678;47.994;7.854;2023-02-22T15:32:18;13.70;99.90
2453;DHT22;63678;47.994;7.854;2023-02-22T15:38:03;13.70;99.90
2453;DHT22;63678;47.994;7.854;2023-02-22T15:43:21;13.60;99.90
2453;DHT22;63678;47.994;7.854;2023-02-22T15:45:55;13.70;99.90
2453;DHT22;63678;47.994;7.854;2023-02-22T15:48:28;13.60;99.90
2453;DHT22;63678;47.994;7.854;2023-02-22T15:51:10;13.60;99.90
2453;DHT22;63678;47.994;7.854;2023-02-22T15:53:46;13.60;99.90
2453;DHT22;63678;47.994;7.854;2023-02-22T15:56:28;13.50;99.90
2453;DHT22;63678;47.994;7.854;2023-02-22T15:59:08;13.40;99.90
2453;DHT22;63678;47.994;7.854;2023-02-22T16:01:45;13.30;99.90
2453;DHT22;63678;47.994;7.854;2023-02-22T16:04:28;13.30;99.90
2453;DHT22;63678;47.994;7.854;2023-02-22T16:07:22;13.30;99.90
2453;DHT22;63678;47.994;7.854;2023-02-22T16:12:28;13.10;99.90
2453;DHT22;63678;47.994;7.854;2023-02-22T16:15:00;13.10;99.90
2453;DHT22;63678;47.994;7.854;2023-02-22T16:17:37;13.00;99.90
2453;DHT22;63678;47.994;7.854;2023-02-22T16:20:33;13.00;99.90
2453;DHT22;63678;47.994;7.854;2023-02-22T16:23:22;13.00;99.90
2453;DHT22;63678;47.994;7.854;2023-02-22T16:28:59;12.90;99.90
2453;DHT22;63678;47.994;7.854;2023-02-22T16:31:35;12.90;99.90
2453;DHT22;63678;47.994;7.854;2023-02-22T16:36:46;12.80;99.90
2453;DHT22;63678;47.994;7.854;2023-02-22T16:39:28;12.80;99.90
2453;DHT22;63678;47.994;7.854;2023-02-22T16:42:03;12.80;99.90
2453;DHT22;63678;47.994;7.854;2023-02-22T16:44:36;12.80;99.90
2453;DHT22;63678;47.994;7.854;2023-02-22T16:47:10;12.80;99.90
2453;DHT22;63678;47.994;7.854;2023-02-22T16:49:43;12.80;99.90
2453;DHT22;63678;47.994;7.854;2023-02-22T16:52:19;12.80;99.90
2453;DHT22;63678;47.994;7.854;2023-02-22T16:54:51;12.80;99.90
2453;DHT22;63678;47.994;7.854;2023-02-22T16:57:24;12.80;99.90
2453;DHT22;63678;47.994;7.854;2023-02-22T16:59:56;12.80;99.90
2453;DHT22;63678;47.994;7.854;2023-02-22T17:05:01;12.80;99.90
2453;DHT22;63678;47.994;7.854;2023-02-22T17:07:33;12.80;99.90
2453;DHT22;63678;47.994;7.854;2023-02-22T17:10:06;13.60;99.90
2453;DHT22;63678;47.994;7.854;2023-02-22T17:12:40;12.70;99.90
2453;DHT22;63678;47.994;7.854;2023-02-22T17:15:19;12.70;99.90
2453;DHT22;63678;47.994;7.854;2023-02-22T17:17:55;12.70;99.90
2453;DHT22;63678;47.994;7.854;2023-02-22T17:20:27;12.70;99.90
2453;DHT22;63678;47.994;7.854;2023-02-22T17:23:04;12.60;99.90
2453;DHT22;63678;47.994;7.854;2023-02-22T17:25:54;12.60;99.90
2453;DHT22;63678;47.994;7.854;2023-02-22T17:28:30;12.60;99.90
2453;DHT22;63678;47.994;7.854;2023-02-22T17:33:35;12.60;99.90
2453;DHT22;63678;47.994;7.854;2023-02-22T17:41:14;12.50;99.90
2453;DHT22;63678;47.994;7.854;2023-02-22T17:43:46;12.40;99.90
2453;DHT22;63678;47.994;7.854;2023-02-22T17:48:51;12.40;99.90
2453;DHT22;63678;47.994;7.854;2023-02-22T17:56:32;12.20;99.90
2453;DHT22;63678;47.994;7.854;2023-02-22T17:59:04;12.20;99.90
2453;DHT22;63678;47.994;7.854;2023-02-22T18:01:39;12.10;99.90
2453;DHT22;63678;47.994;7.854;2023-02-22T18:04:14;12.10;99.90
2453;DHT22;63678;47.994;7.854;2023-02-22T18:06:46;12.00;99.90
2453;DHT22;63678;47.994;7.854;2023-02-22T18:09:19;12.00;99.90
2453;DHT22;63678;47.994;7.854;2023-02-22T18:16:57;11.70;99.90
2453;DHT22;63678;47.994;7.854;2023-02-22T18:24:35;11.60;99.90
2453;DHT22;63678;47.994;7.854;2023-02-22T18:27:07;11.60;99.90
2453;DHT22;63678;47.994;7.854;2023-02-22T18:29:42;11.50;99.90
2453;DHT22;63678;47.994;7.854;2023-02-22T18:32:14;11.50;99.90
2453;DHT22;63678;47.994;7.854;2023-02-22T18:37:20;11.50;99.90
2453;DHT22;63678;47.994;7.854;2023-02-22T18:40:14;11.30;99.90
2453;DHT22;63678;47.994;7.854;2023-02-22T18:42:49;11.50;99.90
2453;DHT22;63678;47.994;7.854;2023-02-22T18:47:57;11.40;99.90
2453;DHT22;63678;47.994;7.854;2023-02-22T18:50:29;11.40;99.90
2453;DHT22;63678;47.994;7.854;2023-02-22T18:53:02;11.40;99.90
2453;DHT22;63678;47.994;7.854;2023-02-22T18:55:34;11.40;99.90
2453;DHT22;63678;47.994;7.854;2023-02-22T18:58:09;11.40;99.90
2453;DHT22;63678;47.994;7.854;2023-02-22T19:00:42;11.30;99.90
2453;DHT22;63678;47.994;7.854;2023-02-22T19:03:14;11.40;99.90
2453;DHT22;63678;47.994;7.854;2023-02-22T19:05:47;11.40;99.90
2453;DHT22;63678;47.994;7.854;2023-02-22T19:11:01;11.20;99.90
2453;DHT22;63678;47.994;7.854;2023-02-22T19:13:36;11.30;99.90
2453;DHT22;63678;47.994;7.854;2023-02-22T19:18:42;11.30;99.90
2453;DHT22;63678;47.994;7.854;2023-02-22T19:21:17;11.30;99.90
2453;DHT22;63678;47.994;7.854;2023-02-22T19:23:51;11.30;99.90
2453;DHT22;63678;47.994;7.854;2023-02-22T19:26:25;11.30;99.90
2453;DHT22;63678;47.994;7.854;2023-02-22T19:29:01;11.20;99.90
2453;DHT22;63678;47.994;7.854;2023-02-22T19:31:36;11.20;99.90
2453;DHT22;63678;47.994;7.854;2023-02-22T19:39:19;11.10;99.90
2453;DHT22;63678;47.994;7.854;2023-02-22T19:44:25;11.10;99.90
2453;DHT22;63678;47.994;7.854;2023-02-22T19:46:58;11.10;99.90
2453;DHT22;63678;47.994;7.854;2023-02-22T19:49:30;11.00;99.90
2453;DHT22;63678;47.994;7.854;2023-02-22T19:52:03;11.00;99.90
2453;DHT22;63678;47.994;7.854;2023-02-22T19:54:37;11.00;99.90
2453;DHT22;63678;47.994;7.854;2023-02-22T19:59:42;11.10;99.90
2453;DHT22;63678;47.994;7.854;2023-02-22T20:02:15;11.00;99.90
2453;DHT22;63678;47.994;7.854;2023-02-22T20:04:47;11.00;99.90
2453;DHT22;63678;47.994;7.854;2023-02-22T20:07:21;11.00;99.90
2453;DHT22;63678;47.994;7.854;2023-02-22T20:12:27;11.00;99.90
2453;DHT22;63678;47.994;7.854;2023-02-22T20:15:00;11.00;99.90
2453;DHT22;63678;47.994;7.854;2023-02-22T20:17:32;11.00;99.90
2453;DHT22;63678;47.994;7.854;2023-02-22T20:20:05;11.00;99.90
2453;DHT22;63678;47.994;7.854;2023-02-22T20:22:37;10.80;99.90
2453;DHT22;63678;47.994;7.854;2023-02-22T20:25:11;11.00;99.90
2453;DHT22;63678;47.994;7.854;2023-02-22T20:27:44;11.00;99.90
2453;DHT22;63678;47.994;7.854;2023-02-22T20:30:17;10.90;99.90
2453;DHT22;63678;47.994;7.854;2023-02-22T20:32:50;11.00;99.90
2453;DHT22;63678;47.994;7.854;2023-02-22T20:35:22;11.00;99.90
2453;DHT22;63678;47.994;7.854;2023-02-22T20:37:55;11.00;99.90
2453;DHT22;63678;47.994;7.854;2023-02-22T20:40:27;11.00;99.90
2453;DHT22;63678;47.994;7.854;2023-02-22T20:42:59;11.00;99.90
2453;DHT22;63678;47.994;7.854;2023-02-22T20:45:41;11.00;99.90
2453;DHT22;63678;47.994;7.854;2023-02-22T20:50:46;11.10;99.90
2453;DHT22;63678;47.994;7.854;2023-02-22T20:53:18;11.00;99.90
2453;DHT22;63678;47.994;7.854;2023-02-22T20:55:52;11.00;99.90
2453;DHT22;63678;47.994;7.854;2023-02-22T20:58:26;11.00;99.90
2453;DHT22;63678;47.994;7.854;2023-02-22T21:01:05;11.00;99.90
2453;DHT22;63678;47.994;7.854;2023-02-22T21:03:39;11.00;99.90
2453;DHT22;63678;47.994;7.854;2023-02-22T21:06:17;11.10;99.90
2453;DHT22;63678;47.994;7.854;2023-02-22T21:08:54;11.10;99.90
2453;DHT22;63678;47.994;7.854;2023-02-22T21:11:29;11.10;99.90